Terminal Aerodrome Forecast
Issued by NWS Wakefield, VA

Home | Current Version | Previous Version | Text Only | Print | Product List | Glossary On
Versions: 1 2 3 4 5 6 7 8 9 10 11 12 13 14
913
FTUS41 KAKQ 232321
TAFORF
TAF
KORF 232321Z 2400/2424 02009KT P6SM VCSH FEW020 BKN035
     FM240300 08008KT P6SM BKN050
     FM241100 03011KT P6SM SCT060
     FM241500 04011KT P6SM BKN100=

USA.gov is the U.S. government's official web portal to all federal, state and local government web resources and services.